x

Ilm3 - 27 Miles Se Of Wrightsville Beach, Nc (41037) Weather Station

4:08 - Tue 30th May 2017 All times are EDT. -4 hours from GMT.

  • Wind
    4mph, 9mph gusts
  • Sea Temp 77°f
  • Air Temp 76°f
  • Sea Pressure 1015.8mb
  • Ilm3 - 27 Miles Se Of Wrightsville Beach, Nc
  • Ilm3 - 27 Miles Se Of Wrightsville Beach, Nc

More Historic Weather Station data

Upgrade to MSW Pro to gain access to the past 30 days of data for over 8000 Wavebouys and Weather Stations around the globe.

Join Pro

Comparision Forecast

View Surf forecast
   
mar. 05/30 4:08 4 9 mph 1015.8mb 77f 76f
3:08 7 9 mph 1016.4mb 77f 76f
2:08 7 11 mph 1016.3mb 77f 76f
1:08 11 16 mph 1016.8mb 77f 76f
12:08 11 16 mph 1016.6mb 77f 76f
lun. 05/29 11:08 11 18 mph 1016.5mb 77f 77f
10:08 11 16 mph 1016mb 78f 77f
9:08 11 16 mph 1016.1mb 78f 77f
8:08 9 11 mph 1015.1mb 78f 77f
7:08 11 16 mph 1014.6mb 78f 77f
6:08 9 11 mph 1014.4mb 78f 77f
5:08 11 16 mph 1014.2mb 78f 77f
3:08 11 13 mph 1014.7mb 78f 78f
2:08 9 11 mph 1014.3mb 78f 78f
1:08 7 9 mph 1014.3mb 77f 77f
12:08 7 11 mph 1014.4mb 77f 76f
11:08 7 9 mph 1014mb 77f 76f
10:08 7 9 mph 1013.2mb 77f 75f
9:08 11 13 mph 1013.1mb 77f 75f
8:08 13 18 mph 1012.7mb 76f 75f
7:08 16 22 mph 1012.1mb 76f 76f
6:08 13 20 mph 1011.4mb 76f 75f
5:08 16 22 mph 1010.8mb 76f 76f
4:08 16 22 mph 1009.8mb 76f 76f
3:08 18 25 mph 1009.7mb 76f 76f
2:08 16 22 mph 1010.2mb 76f 76f
1:08 13 20 mph 1010.1mb 77f 74f
12:08 18 25 mph 1010.4mb 76f 75f
dim. 05/28 11:08 9 13 mph 1010.9mb 77f 70f
10:08 20 27 mph 1011.4mb 77f 77f
9:08 18 25 mph 1009.3mb 77f 76f
8:08 16 22 mph 1010.2mb 77f 77f
7:08 16 25 mph 1010.2mb 77f 77f
6:08 18 25 mph 1010mb 77f 77f
5:08 20 27 mph 1009.2mb 77f 77f
4:08 18 27 mph 1009.8mb 77f 77f
3:08 18 25 mph 1010.8mb 77f 77f
2:08 20 27 mph 1011.1mb 77f 76f
1:08 16 20 mph 1011.2mb 77f 77f
12:08 16 22 mph 1012.2mb 77f 76f
11:08 16 22 mph 1011.7mb 77f 76f
10:08 18 25 mph 1012mb 77f 76f
9:08 16 20 mph 1011.5mb 77f 76f
8:08 16 22 mph 1010.6mb 77f 75f
7:08 16 20 mph 1009.9mb 77f 75f
6:08 16 22 mph 1010.1mb 77f 75f
4:08 13 20 mph 1010.8mb 77f 75f
3:08 13 22 mph 1010.8mb 77f 75f
2:08 16 20 mph 1011.4mb 77f 76f
1:08 16 25 mph 1011.8mb 77f 76f
12:08 20 25 mph 1012.4mb 77f 76f
sam. 05/27 11:08 18 25 mph 1013mb 77f 76f
10:08 20 25 mph 1012.6mb 77f 77f
9:08 20 27 mph 1012.1mb 78f 76f
8:08 18 25 mph 1012.7mb 77f 77f
7:08 18 25 mph 1011.6mb 77f 76f
6:08 18 25 mph 1012mb 77f 76f
5:08 18 27 mph 1013mb 76f 76f
4:08 20 27 mph 1013.1mb 76f 76f
3:08 20 27 mph 1013.7mb 76f 76f
2:08 18 25 mph 1013.7mb 76f 76f
1:08 16 22 mph 1013.8mb 76f 76f
12:08 16 22 mph 1014.1mb 76f 75f
11:08 16 20 mph 1014.8mb 77f 75f
10:08 13 20 mph 1015.1mb 77f 76f
9:08 13 18 mph 1015.1mb 77f 75f
8:08 11 16 mph 1014.9mb 77f 75f
7:08 13 20 mph 1015mb 76f 75f
6:08 11 16 mph 1014.5mb 76f 74f
5:08 13 18 mph 1014.3mb 76f 74f
4:08 13 18 mph 1014mb 76f 74f
3:08 13 20 mph 1014mb 76f 74f
2:08 13 20 mph 1014.1mb 76f 74f
1:08 13 18 mph 1014.6mb 76f 75f
12:08 16 20 mph 1015mb 76f 75f
ven. 05/26 11:08 18 22 mph 1014.4mb 76f 75f
10:08 20 25 mph 1013.5mb 76f 74f
9:08 20 27 mph 1013mb 76f 74f
8:08 22 29 mph 1013.5mb 76f 74f
7:08 22 29 mph 1012.4mb 76f 74f
5:08 22 29 mph 1011.8mb 76f 74f
4:08 20 27 mph 1011.6mb 76f 74f
3:08 18 25 mph 1013.2mb 76f 74f
2:08 16 22 mph 1013.1mb 75f 73f
1:08 13 20 mph 1013.1mb 76f 73f
12:08 13 20 mph 1013.3mb 75f 72f
11:08 13 20 mph 1013.3mb 75f 71f
10:08 16 20 mph 1013.8mb 75f 71f
9:08 16 22 mph 1013.8mb 76f 70f